Time;durP1;ratioP1;P1;durP2;ratioP2;P2;SDS_P1;SDS_P2;PMS_P1;PMS_P2;Temp;Humidity;BMP_temperature;BMP_pressure;BME280_temperature;BME280_humidity;BME280_pressure;Samples;Min_cycle;Max_cycle;Signal;HPM_P1;HPM_P2
2023/01/02 00:00:59;;;;;;;15.88;8.18;;;;;;;8.09;84.46;99258.26;1821215;77;25755;-67
2023/01/02 00:03:25;;;;;;;22.20;8.70;;;;;;;8.09;84.54;99260.98;1820614;77;25666;-67
2023/01/02 00:05:51;;;;;;;21.45;8.80;;;;;;;8.09;84.35;99258.26;1792825;77;27344;-67
2023/01/02 00:08:18;;;;;;;19.67;9.30;;;;;;;8.08;84.52;99260.73;1794445;77;25704;-67
2023/01/02 00:10:44;;;;;;;18.42;9.20;;;;;;;8.07;84.46;99258.28;1821185;77;25481;-67
2023/01/02 00:13:11;;;;;;;18.20;9.25;;;;;;;8.04;84.37;99252.28;1794221;77;25685;-67
2023/01/02 00:15:37;;;;;;;26.25;10.32;;;;;;;8.03;84.56;99258.02;1794019;77;25664;-67
2023/01/02 00:18:04;;;;;;;18.23;8.53;;;;;;;8.02;84.54;99246.84;1851347;77;27434;-67
2023/01/02 00:20:30;;;;;;;15.60;7.67;;;;;;;8.03;84.63;99246.56;1794312;77;26120;-67
2023/01/02 00:22:56;;;;;;;14.60;8.03;;;;;;;8.04;84.47;99250.91;1801762;77;25571;-68
2023/01/02 00:25:22;;;;;;;19.20;9.43;;;;;;;8.03;84.60;99243.01;1756397;77;25858;-67
2023/01/02 00:27:48;;;;;;;23.25;12.40;;;;;;;8.06;84.14;99251.20;1797865;77;25771;-68
2023/01/02 00:30:15;;;;;;;16.95;8.60;;;;;;;8.06;84.30;99239.72;1798863;77;26889;-67
2023/01/02 00:32:41;;;;;;;13.95;6.97;;;;;;;8.07;84.22;99239.17;1799114;77;25636;-67
2023/01/02 00:35:09;;;;;;;28.32;12.37;;;;;;;8.10;84.08;99238.61;1799081;77;25695;-68
2023/01/02 00:37:36;;;;;;;25.02;11.70;;;;;;;8.09;83.99;99246.55;1799034;77;25691;-67
2023/01/02 00:40:04;;;;;;;25.37;12.85;;;;;;;8.11;83.69;99245.16;1826278;77;25453;-67
2023/01/02 00:42:30;;;;;;;62.73;36.63;;;;;;;8.10;83.64;99240.80;1769188;77;28442;-68
2023/01/02 00:44:56;;;;;;;62.43;30.27;;;;;;;8.10;83.52;99239.44;1799019;77;25682;-67
2023/01/02 00:47:22;;;;;;;33.53;15.10;;;;;;;8.08;83.56;99242.16;1772717;77;25454;-67
2023/01/02 00:49:48;;;;;;;23.57;11.50;;;;;;;8.08;83.68;99246.26;1826305;77;25721;-67
2023/01/02 00:52:14;;;;;;;25.70;13.22;;;;;;;8.05;83.60;99234.00;1799471;77;25715;-67
2023/01/02 00:54:41;;;;;;;25.50;12.58;;;;;;;8.03;83.73;99240.28;1854584;77;27417;-67
2023/01/02 00:57:07;;;;;;;29.23;13.98;;;;;;;8.00;83.46;99239.50;1796126;77;25806;-68
2023/01/02 00:59:33;;;;;;;19.95;10.08;;;;;;;7.96;83.38;99241.97;1799612;77;25585;-67
2023/01/02 01:02:00;;;;;;;24.98;12.98;;;;;;;7.90;83.44;99239.00;1825834;77;25826;-67
2023/01/02 01:04:26;;;;;;;20.60;13.00;;;;;;;7.87;83.49;99239.02;1826174;77;25410;-67
2023/01/02 01:06:52;;;;;;;27.13;18.00;;;;;;;7.87;83.59;99247.75;1826580;77;28503;-67
2023/01/02 01:09:19;;;;;;;42.62;21.07;;;;;;;7.85;83.43;99245.30;1826168;77;25638;-67
2023/01/02 01:11:54;;;;;;;23.52;11.20;;;;;;;7.85;83.50;99241.75;1826413;77;25468;-67
2023/01/02 01:14:30;;;;;;;28.38;13.68;;;;;;;7.86;83.69;99237.38;1854682;77;25767;-67
2023/01/02 01:17:02;;;;;;;28.00;13.95;;;;;;;7.87;83.60;99239.56;1827562;77;25595;-67
2023/01/02 01:19:34;;;;;;;23.20;11.55;;;;;;;7.87;83.40;99234.94;1826361;77;27500;-67
2023/01/02 01:22:05;;;;;;;26.37;12.75;;;;;;;7.84;83.25;99237.39;1792443;78;25843;-67
2023/01/02 01:24:38;;;;;;;18.82;9.58;;;;;;;7.82;83.29;99239.58;1750738;78;25681;-67
2023/01/02 01:27:16;;;;;;;15.10;8.63;;;;;;;7.78;83.25;99246.96;1791383;78;25754;-67
2023/01/02 01:29:39;;;;;;;13.15;8.30;;;;;;;7.73;83.37;99237.45;1765861;78;25428;-67
2023/01/02 01:32:05;;;;;;;18.87;10.10;;;;;;;7.65;83.36;99244.84;1791251;78;27459;-68
2023/01/02 01:34:31;;;;;;;57.45;28.30;;;;;;;7.61;83.44;99245.14;1791112;78;25971;-67
2023/01/02 01:36:57;;;;;;;102.15;47.55;;;;;;;7.57;83.53;99246.80;1791429;78;25469;-67
2023/01/02 01:39:23;;;;;;;40.12;21.85;;;;;;;7.51;83.65;99233.72;1727867;78;25737;-67
2023/01/02 01:41:50;;;;;;;57.80;27.58;;;;;;;7.47;83.40;99242.20;1752190;78;25669;-68
2023/01/02 01:44:54;;;;;;;40.05;20.05;;;;;;;7.41;83.36;99235.95;1791520;78;27374;-67
2023/01/02 01:47:43;;;;;;;25.57;14.35;;;;;;;7.35;83.41;99235.16;1791263;78;25462;-67
2023/01/02 01:50:34;;;;;;;29.25;16.73;;;;;;;7.30;83.47;99229.71;1818170;78;25420;-67
2023/01/02 01:53:16;;;;;;;17.42;8.85;;;;;;;7.29;83.72;99226.73;1818270;78;27875;-66
2023/01/02 01:55:52;;;;;;;18.40;9.75;;;;;;;7.27;84.53;99216.63;1790924;78;25487;-66
2023/01/02 01:58:24;;;;;;;16.60;9.90;;;;;;;7.27;84.57;99214.73;1790863;78;28410;-66
2023/01/02 02:00:50;;;;;;;;;;;;;;;7.26;84.20;99208.99;1821360;78;25394;-66
2023/01/02 02:03:21;;;;;;;22.48;10.58;;;;;;;7.25;84.25;99203.81;1791268;78;25676;-66
2023/01/02 02:05:49;;;;;;;22.32;11.30;;;;;;;7.25;84.20;99204.64;1791885;78;25658;-67
2023/01/02 02:08:23;;;;;;;19.02;10.65;;;;;;;7.29;84.09;99194.02;1728316;78;25686;-67
2023/01/02 02:10:50;;;;;;;21.87;12.07;;;;;;;;;;1818774;78;28287;-67
2023/01/02 02:13:18;;;;;;;19.75;10.80;;;;;;;7.32;84.02;99179.82;1765272;78;25742;-67
2023/01/02 02:16:08;;;;;;;23.87;11.73;;;;;;;7.34;84.10;99180.34;1791584;78;25487;-67
2023/01/02 02:18:57;;;;;;;22.73;12.15;;;;;;;7.36;83.96;99179.52;1818528;78;25735;-66
2023/01/02 02:21:58;;;;;;;16.97;9.80;;;;;;;7.33;83.89;99173.80;1823174;77;25399;-68
2023/01/02 02:24:52;;;;;;;28.87;13.53;;;;;;;7.25;83.77;99172.47;1848392;77;28135;-67
2023/01/02 02:27:36;;;;;;;20.10;8.55;;;;;;;7.12;83.82;99177.45;1851426;77;25420;-67
2023/01/02 02:30:20;;;;;;;19.20;9.28;;;;;;;6.99;84.03;99171.20;1852105;77;25533;-67
2023/01/02 02:33:11;;;;;;;31.82;14.10;;;;;;;6.87;84.64;99166.88;1819063;77;26021;-67
2023/01/02 02:35:49;;;;;;;23.65;12.15;;;;;;;6.84;85.21;99163.34;1851544;77;25703;-67
2023/01/02 02:38:21;;;;;;;21.33;11.80;;;;;;;6.86;85.94;99153.00;1851105;77;26854;-67
2023/01/02 02:41:15;;;;;;;20.12;9.90;;;;;;;6.96;86.49;99139.87;1820526;77;25623;-67
2023/01/02 02:44:10;;;;;;;20.20;9.43;;;;;;;7.05;85.89;99138.75;1851523;77;25379;-67
2023/01/02 02:46:47;;;;;;;19.27;9.48;;;;;;;7.10;85.54;99133.83;1851498;77;25752;-66
2023/01/02 02:49:45;;;;;;;20.82;10.60;;;;;;;7.12;85.86;99126.20;1816992;77;25651;-66
2023/01/02 02:52:22;;;;;;;15.55;8.58;;;;;;;7.12;85.56;99121.58;1821131;77;26636;-66
2023/01/02 02:55:17;;;;;;;18.75;9.85;;;;;;;7.17;86.07;99138.45;1851403;77;25636;-66
2023/01/02 02:57:45;;;;;;;20.23;10.63;;;;;;;7.21;85.82;99134.06;1821197;77;25666;-66
2023/01/02 03:00:18;;;;;;;16.42;9.18;;;;;;;7.27;85.58;99141.13;1821170;77;25739;-66
2023/01/02 03:02:45;;;;;;;17.55;10.55;;;;;;;7.29;85.57;99140.84;1851562;77;25559;-66
2023/01/02 03:05:16;;;;;;;26.37;12.20;;;;;;;7.27;85.21;99149.30;1753237;77;28004;-66
2023/01/02 03:08:15;;;;;;;18.25;9.05;;;;;;;7.20;85.43;99136.50;1844294;77;25731;-67
2023/01/02 03:10:59;;;;;;;22.10;11.63;;;;;;;7.16;85.36;99140.89;1851684;77;25587;-66
2023/01/02 03:13:52;;;;;;;16.65;8.73;;;;;;;7.18;85.10;99147.42;1821120;77;25749;-67
2023/01/02 03:16:38;;;;;;;20.92;11.53;;;;;;;7.15;85.23;99144.72;1849415;77;25394;-66
2023/01/02 03:19:42;;;;;;;22.87;11.03;;;;;;;7.21;85.99;99137.33;1822886;77;26778;-66
2023/01/02 03:22:22;;;;;;;14.90;8.23;;;;;;;7.25;85.91;99134.30;1820543;77;25643;-66
2023/01/02 03:24:52;;;;;;;13.65;8.15;;;;;;;7.25;85.53;99130.21;1819517;77;25521;-66
2023/01/02 03:27:22;;;;;;;14.85;8.28;;;;;;;7.27;85.33;99128.03;1820747;77;27865;-66
2023/01/02 03:30:09;;;;;;;18.30;11.20;;;;;;;7.32;85.17;99128.56;1820998;77;25733;-66
2023/01/02 03:32:44;;;;;;;16.48;8.98;;;;;;;7.32;85.17;99128.56;1849680;77;27355;-66
2023/01/02 03:35:14;;;;;;;17.02;10.48;;;;;;;7.40;84.85;99144.34;1804772;77;25518;-66
2023/01/02 03:37:45;;;;;;;16.65;9.08;;;;;;;7.45;84.83;99135.33;1821934;77;25706;-67
2023/01/02 03:40:15;;;;;;;;;;;;;;;7.43;84.44;99134.24;1823781;77;25732;-66
2023/01/02 03:42:59;;;;;;;14.73;8.25;;;;;;;7.39;84.15;99133.97;1851179;77;25581;-67
2023/01/02 03:45:31;;;;;;;29.32;14.35;;;;;;;7.26;84.36;99125.05;1820795;77;27139;-66
2023/01/02 03:48:17;;;;;;;23.55;12.50;;;;;;;7.19;84.76;99117.73;1848512;76;25437;-67
2023/01/02 03:50:52;;;;;;;18.45;10.40;;;;;;;7.18;84.86;99122.89;1788557;77;25653;-66
2023/01/02 03:53:27;;;;;;;22.07;11.12;;;;;;;7.12;84.56;99127.02;1851595;77;25700;-66
2023/01/02 03:56:55;;;;;;;18.87;10.65;;;;;;;7.04;84.46;99123.50;1821931;77;25443;-66
2023/01/02 04:00:01;;;;;;;14.95;8.10;;;;;;;6.94;84.17;99126.27;1850647;77;26908;-66
2023/01/02 04:02:53;;;;;;;12.05;7.33;;;;;;;6.79;83.65;99126.57;1851380;77;25583;-66
2023/01/02 04:05:47;;;;;;;15.38;9.08;;;;;;;6.67;83.75;99118.71;1851948;77;25413;-66
2023/01/02 04:08:36;;;;;;;19.23;10.40;;;;;;;6.59;83.85;99117.93;1851127;77;25680;-67
2023/01/02 04:11:04;;;;;;;17.95;10.70;;;;;;;6.56;84.22;99126.08;1737910;81;25725;-66
2023/01/02 04:13:44;;;;;;;17.65;10.30;;;;;;;6.57;84.65;99122.29;1738205;81;28007;-67
2023/01/02 04:16:16;;;;;;;17.70;10.72;;;;;;;6.62;85.00;99129.63;1763718;81;25621;-67
2023/01/02 04:18:59;;;;;;;21.10;11.83;;;;;;;6.65;85.10;99123.64;1763791;81;25620;-67
2023/01/02 04:21:30;;;;;;;22.73;13.22;;;;;;;6.52;85.17;99124.48;1742419;80;25933;-66
2023/01/02 04:24:15;;;;;;;27.85;15.23;;;;;;;6.35;85.24;99130.20;1761630;80;25715;-66
2023/01/02 04:26:46;;;;;;;25.00;14.65;;;;;;;6.19;85.52;99132.67;1787725;80;27598;-67
2023/01/02 04:29:13;;;;;;;25.02;13.93;;;;;;;6.09;85.99;99137.56;1786648;80;25740;-66
2023/01/02 04:31:49;;;;;;;30.02;16.35;;;;;;;6.09;86.17;99126.14;1761927;80;25522;-67
2023/01/02 04:34:17;;;;;;;34.43;18.20;;;;;;;6.11;86.15;99125.88;1736639;80;25730;-67
2023/01/02 04:36:44;;;;;;;22.40;12.85;;;;;;;6.08;86.13;99127.77;1737070;80;25636;-67
2023/01/02 04:39:10;;;;;;;20.02;10.72;;;;;;;6.05;86.02;99116.08;1787784;80;26603;-67
2023/01/02 04:41:38;;;;;;;16.85;9.88;;;;;;;6.04;86.23;99119.33;1761735;80;25719;-67
2023/01/02 04:44:05;;;;;;;16.23;8.83;;;;;;;6.05;86.18;99107.91;1761943;80;25662;-66
2023/01/02 04:46:31;;;;;;;18.02;10.03;;;;;;;6.05;86.29;99114.18;1737285;80;26588;-67
2023/01/02 04:48:57;;;;;;;19.35;10.20;;;;;;;6.06;86.51;99112.25;1772977;77;25698;-67
2023/01/02 04:51:24;;;;;;;20.12;11.70;;;;;;;6.10;86.49;99112.80;1855157;77;27601;-67
2023/01/02 04:53:52;;;;;;;25.37;14.85;;;;;;;6.14;86.30;99119.32;1799312;77;25627;-67
2023/01/02 04:56:18;;;;;;;24.23;14.98;;;;;;;6.20;86.32;99116.61;1826162;77;25687;-67
2023/01/02 04:58:46;;;;;;;24.98;15.85;;;;;;;6.21;85.89;99125.86;1799312;77;25687;-67
2023/01/02 05:01:15;;;;;;;31.77;17.02;;;;;;;6.17;85.51;99119.34;1799684;77;25650;-67
2023/01/02 05:03:45;;;;;;;54.05;32.05;;;;;;;6.03;85.45;99108.16;1827018;77;28430;-66
2023/01/02 05:06:11;;;;;;;40.43;24.95;;;;;;;5.91;85.77;99108.42;1799984;77;25750;-66
2023/01/02 05:08:38;;;;;;;35.00;21.27;;;;;;;5.85;85.96;99108.15;1826442;77;25594;-67
2023/01/02 05:11:07;;;;;;;38.28;21.33;;;;;;;5.82;86.13;99105.97;1822373;77;25864;-66
2023/01/02 05:13:33;;;;;;;24.87;16.55;;;;;;;5.80;86.05;99102.69;1826634;77;25675;-66
2023/01/02 05:16:00;;;;;;;24.02;13.60;;;;;;;5.81;86.31;99101.63;1802204;76;30214;-67
2023/01/02 05:18:30;;;;;;;26.57;14.65;;;;;;;5.85;86.67;99102.71;1827014;76;25728;-67
2023/01/02 05:23:59;;;;;;;18.17;10.70;;;;;;;5.94;87.13;99092.92;1879113;76;25498;-67
2023/01/02 05:26:26;;;;;;;19.15;11.95;;;;;;;5.98;87.17;99092.64;1854774;76;25876;-67
2023/01/02 05:28:53;;;;;;;57.83;35.98;;;;;;;6.03;87.57;99085.02;1854709;76;27320;-67
2023/01/02 05:31:20;;;;;;;28.23;14.25;;;;;;;6.11;88.13;99090.50;1850554;76;25587;-67
2023/01/02 05:33:53;;;;;;;38.02;18.82;;;;;;;6.21;88.90;99088.30;1782971;77;25702;-67
2023/01/02 05:36:20;;;;;;;23.80;11.63;;;;;;;6.30;88.43;99086.66;1852778;77;25674;-67
2023/01/02 05:38:46;;;;;;;39.30;19.32;;;;;;;6.39;88.32;99087.73;1768909;77;25431;-66
2023/01/02 05:41:14;;;;;;;20.60;8.33;;;;;;;6.46;88.17;99086.63;1826343;77;27505;-67
2023/01/02 05:43:40;;;;;;;21.77;10.15;;;;;;;6.51;88.11;99086.06;1854958;77;25611;-67
2023/01/02 05:46:19;;;;;;;18.82;10.18;;;;;;;6.58;88.05;99084.96;1826381;77;25654;-67
2023/01/02 05:48:46;;;;;;;18.67;10.15;;;;;;;6.63;87.80;99086.32;1826351;77;25733;-67
2023/01/02 05:51:15;;;;;;;13.75;7.80;;;;;;;6.68;87.76;99086.28;1803205;76;25696;-67
2023/01/02 05:53:41;;;;;;;11.63;7.65;;;;;;;6.72;87.56;99087.39;1800229;78;27402;-67
2023/01/02 05:56:11;;;;;;;16.15;9.28;;;;;;;6.75;87.88;99086.83;1773737;78;25616;-67
2023/01/02 05:58:41;;;;;;;20.23;10.13;;;;;;;6.78;87.39;99090.91;1800368;78;25473;-67
2023/01/02 06:01:15;;;;;;;16.85;10.90;;;;;;;6.79;86.99;99095.24;1800975;78;26365;-67
2023/01/02 06:03:47;;;;;;;20.23;11.75;;;;;;;6.79;86.77;99096.61;1826873;78;25650;-67
2023/01/02 06:06:15;;;;;;;20.90;12.03;;;;;;;6.78;86.42;99095.81;1826960;78;27353;-67
2023/01/02 06:08:41;;;;;;;21.37;13.75;;;;;;;6.73;86.33;99102.63;1819426;76;25727;-67
2023/01/02 06:11:07;;;;;;;22.65;14.43;;;;;;;6.70;86.19;99111.89;1824738;76;25661;-67
2023/01/02 06:13:36;;;;;;;27.60;17.57;;;;;;;6.61;85.84;99108.38;1805934;76;26522;-67
2023/01/02 06:16:05;;;;;;;35.68;20.90;;;;;;;6.51;85.84;99105.69;1851999;76;25692;-67
2023/01/02 06:18:34;;;;;;;24.65;15.85;;;;;;;6.40;85.87;99103.53;1852424;76;27349;-67
2023/01/02 06:21:05;;;;;;;34.15;19.92;;;;;;;6.21;85.01;99104.09;1852608;76;25841;-67
2023/01/02 06:23:31;;;;;;;39.85;21.48;;;;;;;5.85;84.89;99111.70;1852304;76;25483;-67
2023/01/02 06:26:06;;;;;;;58.50;26.62;;;;;;;5.65;85.27;99111.13;1852451;76;25702;-67
2023/01/02 06:28:32;;;;;;;74.90;31.65;;;;;;;5.63;85.84;99114.11;1852442;76;25762;-68
2023/01/02 06:31:04;;;;;;;90.00;38.25;;;;;;;5.59;85.39;99117.10;1852258;76;27516;-67
2023/01/02 06:33:31;;;;;;;73.33;31.82;;;;;;;5.54;85.39;99107.56;1824749;76;25647;-67
2023/01/02 06:36:00;;;;;;;62.30;29.35;;;;;;;5.53;85.64;99108.66;1780094;76;25633;-67
2023/01/02 06:38:27;;;;;;;63.83;30.95;;;;;;;5.56;85.74;99105.94;1852606;76;25788;-66
2023/01/02 06:40:59;;;;;;;68.25;31.27;;;;;;;5.59;85.79;99104.88;1852332;76;25472;-66
2023/01/02 06:43:27;;;;;;;62.55;28.83;;;;;;;5.60;85.52;99098.87;1878928;76;27432;-67
2023/01/02 06:46:03;;;;;;;60.70;29.15;;;;;;;5.57;85.29;99099.41;1824978;76;25642;-67
2023/01/02 06:48:34;;;;;;;70.12;31.40;;;;;;;5.53;85.49;99099.95;1878628;76;25687;-67
2023/01/02 06:51:06;;;;;;;70.65;32.10;;;;;;;5.53;85.32;99093.71;1779780;76;25845;-66
2023/01/02 06:53:34;;;;;;;62.85;30.95;;;;;;;5.50;85.15;99090.97;1879185;76;25562;-66
2023/01/02 06:56:01;;;;;;;83.85;35.98;;;;;;;5.44;85.26;99092.04;1852043;76;27243;-66
2023/01/02 06:58:31;;;;;;;66.77;30.23;;;;;;;5.36;85.13;99096.09;1878818;76;25814;-67
2023/01/02 07:01:13;;;;;;;56.53;28.15;;;;;;;5.18;84.96;99093.33;1852708;76;25606;-67
2023/01/02 07:03:40;;;;;;;57.85;27.58;;;;;;;5.03;85.38;99098.17;1852358;76;25877;-67
2023/01/02 07:06:12;;;;;;;49.58;26.27;;;;;;;4.93;85.72;99104.93;1851877;76;25744;-66
2023/01/02 07:08:38;;;;;;;49.88;27.60;;;;;;;4.88;85.87;99103.84;1877239;76;28229;-66
2023/01/02 07:11:18;;;;;;;49.63;27.35;;;;;;;4.93;86.42;99108.47;1824108;76;25773;-66
2023/01/02 07:13:46;;;;;;;48.48;26.62;;;;;;;4.96;86.24;99110.66;1879197;76;25686;-66
2023/01/02 07:16:15;;;;;;;133.35;48.85;;;;;;;5.00;86.12;99108.21;1852537;76;25738;-66
2023/01/02 07:18:41;;;;;;;73.37;32.38;;;;;;;5.05;86.24;99096.02;1821960;76;25629;-66
2023/01/02 07:21:10;;;;;;;52.73;26.40;;;;;;;5.14;86.18;99103.11;1852326;76;27050;-66
2023/01/02 07:23:37;;;;;;;55.98;27.27;;;;;;;5.20;86.07;99103.41;1834632;77;25835;-66
2023/01/02 07:26:06;;;;;;;84.55;34.00;;;;;;;5.25;85.48;99103.97;1826942;77;25705;-66
2023/01/02 07:28:34;;;;;;;66.22;30.97;;;;;;;5.19;85.24;99109.93;1826935;77;25698;-66
2023/01/02 07:31:04;;;;;;;64.00;29.30;;;;;;;5.12;85.09;99110.70;1800126;77;25640;-66
2023/01/02 07:33:31;;;;;;;77.03;34.30;;;;;;;5.05;85.39;99112.85;1827880;77;27531;-66
2023/01/02 07:36:01;;;;;;;80.90;35.43;;;;;;;4.97;85.61;99110.10;1784210;78;27232;-67
2023/01/02 07:38:28;;;;;;;81.87;35.75;;;;;;;4.93;86.02;99111.19;1803111;78;25758;-67
2023/01/02 07:40:54;;;;;;;95.10;37.50;;;;;;;5.01;86.79;99108.52;1804551;78;25913;-67
2023/01/02 07:43:21;;;;;;;107.30;43.23;;;;;;;5.13;86.86;99106.36;1804499;78;25738;-67
2023/01/02 07:45:48;;;;;;;127.72;45.80;;;;;;;5.24;86.75;99111.29;1805079;78;27240;-68
2023/01/02 07:48:14;;;;;;;99.80;41.65;;;;;;;5.36;86.63;99109.69;1804644;78;25591;-67
2023/01/02 07:50:40;;;;;;;64.22;27.82;;;;;;;5.46;86.00;99107.55;1804506;78;25463;-68
2023/01/02 07:53:06;;;;;;;60.98;28.60;;;;;;;5.55;86.60;99101.03;1778056;78;25754;-67
2023/01/02 07:55:33;;;;;;;44.13;22.42;;;;;;;5.71;87.12;99096.45;1778248;78;25663;-67
2023/01/02 07:57:59;;;;;;;33.23;15.72;;;;;;;5.87;87.48;99093.72;1778202;78;27379;-67
2023/01/02 08:00:25;;;;;;;36.50;18.60;;;;;;;6.04;87.99;99098.92;1778399;78;25660;-67
2023/01/02 08:02:53;;;;;;;26.27;14.50;;;;;;;6.21;88.02;99091.02;1804874;78;25580;-67
2023/01/02 08:05:21;;;;;;;32.78;16.02;;;;;;;6.38;88.24;99093.45;1804879;78;25774;-67
2023/01/02 08:07:47;;;;;;;30.37;16.07;;;;;;;6.52;88.08;99093.16;1804607;78;25643;-67
2023/01/02 08:10:13;;;;;;;33.08;16.57;;;;;;;6.65;87.96;99091.75;1753111;78;26231;-67
2023/01/02 08:12:40;;;;;;;42.90;22.22;;;;;;;6.79;87.72;99089.80;1778139;78;25915;-67
2023/01/02 08:15:07;;;;;;;173.53;60.50;;;;;;;6.92;87.57;99088.41;1804581;78;25639;-68
2023/01/02 08:17:33;;;;;;;622.77;228.22;;;;;;;7.07;87.30;99085.33;1800837;78;26303;-68
2023/01/02 08:20:00;;;;;;;111.10;41.75;;;;;;;7.21;87.27;99085.00;1832519;78;25574;-67
2023/01/02 08:22:26;;;;;;;36.68;20.88;;;;;;;7.38;86.95;99084.64;1804930;77;27321;-67
2023/01/02 08:24:52;;;;;;;157.18;80.95;;;;;;;7.51;86.76;99079.63;1804874;78;25919;-68
2023/01/02 08:27:18;;;;;;;133.32;45.10;;;;;;;7.64;86.80;99080.92;1804175;78;25707;-68
2023/01/02 08:29:44;;;;;;;67.80;24.12;;;;;;;7.80;86.62;99083.54;1804835;78;25742;-68
2023/01/02 08:32:10;;;;;;;120.57;34.43;;;;;;;7.95;86.24;99084.79;1778250;78;25636;-68
2023/01/02 08:34:36;;;;;;;51.20;20.57;;;;;;;8.11;86.07;99084.09;1832457;78;27396;-68
2023/01/02 08:37:03;;;;;;;194.57;47.13;;;;;;;8.27;85.60;99076.56;1777962;78;25837;-68
2023/01/02 08:39:29;;;;;;;56.30;24.35;;;;;;;8.37;85.15;99081.13;1778359;78;25511;-67
2023/01/02 08:41:57;;;;;;;209.62;49.67;;;;;;;8.49;84.99;99081.29;1777879;78;25728;-67
2023/01/02 08:44:23;;;;;;;241.42;60.55;;;;;;;8.58;84.99;99085.02;1753688;78;25408;-68
2023/01/02 08:46:50;;;;;;;251.60;59.15;;;;;;;8.72;84.80;99085.72;1804326;78;27571;-67
2023/01/02 08:49:16;;;;;;;167.10;44.40;;;;;;;8.93;84.92;99086.29;1752725;78;26033;-68
2023/01/02 08:51:42;;;;;;;120.20;35.20;;;;;;;9.19;84.31;99083.23;1804798;78;25596;-68
2023/01/02 08:54:08;;;;;;;115.35;35.78;;;;;;;9.48;84.10;99086.93;1804555;78;25685;-68
2023/01/02 08:56:36;;;;;;;103.72;33.35;;;;;;;9.77;83.36;99092.25;1804947;78;25422;-67
2023/01/02 08:59:07;;;;;;;123.90;36.13;;;;;;;9.96;82.64;99087.28;1778645;78;27461;-68
2023/01/02 09:01:34;;;;;;;;;;;;;;;10.09;82.37;99082.97;1807380;78;25468;-68
2023/01/02 09:04:01;;;;;;;95.90;31.17;;;;;;;10.21;82.48;99082.49;1804725;78;25436;-68
2023/01/02 09:06:30;;;;;;;63.17;23.40;;;;;;;10.40;82.13;99074.77;1804430;78;25681;-68
2023/01/02 09:08:58;;;;;;;29.57;13.68;;;;;;;10.54;81.72;99081.09;1804853;78;25600;-68
2023/01/02 09:11:35;;;;;;;53.10;18.50;;;;;;;10.68;80.72;99076.17;1804565;78;28201;-68
2023/01/02 09:14:03;;;;;;;63.98;21.70;;;;;;;10.73;80.39;99077.45;1832588;78;25579;-68
2023/01/02 09:16:29;;;;;;;84.95;24.57;;;;;;;10.79;80.72;99078.98;1804620;78;25709;-68
2023/01/02 09:18:59;;;;;;;79.37;26.07;;;;;;;10.90;79.93;99076.85;1804703;78;25711;-68
2023/01/02 09:21:25;;;;;;;23.25;11.38;;;;;;;10.99;79.47;99088.45;1805246;78;25426;-68
2023/01/02 09:23:52;;;;;;;56.63;18.95;;;;;;;11.08;79.11;99078.39;1814260;77;28344;-68
2023/01/02 09:26:18;;;;;;;56.40;17.60;;;;;;;11.23;79.04;99075.09;1820933;77;25721;-68
2023/01/02 09:28:45;;;;;;;73.72;23.52;;;;;;;11.36;78.54;99078.36;1794413;77;25482;-68
2023/01/02 09:31:14;;;;;;;39.13;14.05;;;;;;;11.52;78.58;99076.64;1750209;77;25876;-68
2023/01/02 09:33:42;;;;;;;41.35;15.50;;;;;;;11.69;77.81;99070.48;1746615;77;25631;-68
2023/01/02 09:36:11;;;;;;;44.25;14.63;;;;;;;11.96;77.04;99059.67;1768744;77;28176;-67
2023/01/02 09:38:38;;;;;;;36.23;14.15;;;;;;;12.21;76.21;99056.88;1820817;77;25716;-67
2023/01/02 09:41:41;;;;;;;39.18;14.65;;;;;;;12.47;75.48;99048.50;1817291;77;25631;-67
2023/01/02 09:44:34;;;;;;;32.10;11.22;;;;;;;12.72;75.19;99055.80;1794131;77;25601;-68
2023/01/02 09:47:09;;;;;;;24.00;9.55;;;;;;;12.95;74.47;99054.34;1851335;77;25408;-67
2023/01/02 09:49:43;;;;;;;21.52;10.32;;;;;;;13.12;72.22;99052.98;1820677;77;27480;-67
2023/01/02 09:52:36;;;;;;;44.88;15.55;;;;;;;13.20;72.14;99049.18;1851628;77;25623;-67
2023/01/02 09:55:04;;;;;;;37.17;14.45;;;;;;;13.18;72.24;99036.56;1815766;77;25484;-67
2023/01/02 09:57:42;;;;;;;40.63;15.90;;;;;;;13.44;72.87;99045.96;1793365;77;25693;-67
2023/01/02 10:00:20;;;;;;;46.42;16.00;;;;;;;13.64;72.60;99040.41;1850471;77;25603;-67
2023/01/02 10:02:57;;;;;;;36.42;15.88;;;;;;;13.95;72.49;99028.13;1819959;77;27465;-67
2023/01/02 10:06:02;;;;;;;30.48;13.13;;;;;;;14.50;71.59;99028.44;1815470;77;25803;-67
2023/01/02 10:09:04;;;;;;;59.53;20.72;;;;;;;14.91;69.41;99024.20;1851471;77;25453;-67
2023/01/02 10:11:54;;;;;;;31.82;12.93;;;;;;;15.39;69.29;99019.08;1820342;77;25733;-67
2023/01/02 10:14:45;;;;;;;49.00;17.60;;;;;;;16.12;66.21;99010.63;1821168;77;25498;-67
2023/01/02 10:17:16;;;;;;;13.20;7.35;;;;;;;16.12;66.21;99010.63;1815476;77;28134;-67
2023/01/02 10:19:58;;;;;;;23.98;10.20;;;;;;;16.34;63.29;99010.77;1851514;77;25671;-67
2023/01/02 10:22:45;;;;;;;32.83;13.15;;;;;;;16.50;63.43;99000.41;1815487;77;25595;-67
2023/01/02 10:25:43;;;;;;;32.17;12.82;;;;;;;16.64;64.60;99005.00;1820147;77;26033;-67
2023/01/02 10:28:56;;;;;;;26.25;11.57;;;;;;;16.96;64.37;99004.98;1815237;77;25661;-65
2023/01/02 10:31:44;;;;;;;27.27;12.33;;;;;;;17.10;60.40;99000.50;1846460;77;27274;-65
2023/01/02 10:34:14;;;;;;;36.48;15.20;;;;;;;17.07;61.78;99001.98;1815213;77;25481;-66
2023/01/02 10:36:43;;;;;;;22.85;10.93;;;;;;;17.34;61.23;98998.23;1820560;77;25709;-65
2023/01/02 10:39:17;;;;;;;33.58;14.55;;;;;;;17.61;59.97;98995.82;1820922;77;25679;-65
2023/01/02 10:41:49;;;;;;;18.05;9.15;;;;;;;17.76;60.22;98995.63;1851864;77;25753;-65
2023/01/02 10:44:25;;;;;;;33.10;14.78;;;;;;;17.97;59.50;98990.45;1822210;77;27294;-65
2023/01/02 10:46:53;;;;;;;20.70;10.43;;;;;;;18.10;58.38;98992.55;1815503;77;25666;-65
2023/01/02 10:49:21;;;;;;;21.95;11.43;;;;;;;18.17;57.49;98982.27;1820635;77;25599;-67
2023/01/02 10:51:52;;;;;;;29.55;13.90;;;;;;;18.18;56.36;98986.64;1851673;77;25791;-66
2023/01/02 10:54:19;;;;;;;19.67;10.40;;;;;;;18.27;57.48;98978.95;1819315;77;25670;-66
2023/01/02 10:56:49;;;;;;;15.32;8.35;;;;;;;18.39;54.94;98972.50;1851540;77;27511;-66
2023/01/02 10:59:25;;;;;;;22.95;11.22;;;;;;;18.60;56.79;98967.26;1804373;77;25658;-67
2023/01/02 11:01:56;;;;;;;15.90;9.58;;;;;;;18.77;56.24;98959.70;1821100;77;25496;-66
2023/01/02 11:04:25;;;;;;;22.37;11.45;;;;;;;18.93;55.32;98960.45;1821092;77;25704;-66
2023/01/02 11:07:02;;;;;;;25.60;12.57;;;;;;;19.08;54.69;98959.97;1789492;77;25680;-66
2023/01/02 11:09:32;;;;;;;22.52;12.13;;;;;;;19.17;52.08;98957.81;1851670;77;27410;-66
2023/01/02 11:12:10;;;;;;;18.32;10.35;;;;;;;19.19;54.28;98951.28;1851918;77;25581;-66
2023/01/02 11:14:37;;;;;;;19.55;10.03;;;;;;;19.31;53.64;98946.98;1851688;77;25610;-66
2023/01/02 11:17:15;;;;;;;16.73;9.28;;;;;;;19.50;53.14;98948.14;1821036;77;26462;-66
2023/01/02 11:19:53;;;;;;;13.68;8.05;;;;;;;19.67;52.44;98950.23;1851747;77;25374;-66
2023/01/02 11:22:23;;;;;;;21.77;11.15;;;;;;;19.80;51.69;98950.28;1851354;77;27407;-67
2023/01/02 11:25:04;;;;;;;15.65;8.43;;;;;;;19.86;51.56;98957.72;1764570;78;25944;-66
2023/01/02 11:27:34;;;;;;;14.98;8.48;;;;;;;19.71;51.37;98952.48;1809288;78;25758;-66
2023/01/02 11:30:02;;;;;;;12.43;7.03;;;;;;;19.68;51.58;98944.89;1809766;78;25721;-66
2023/01/02 11:32:38;;;;;;;12.80;7.33;;;;;;;19.85;51.48;98945.58;1821688;78;25722;-66
2023/01/02 11:35:26;;;;;;;5.67;4.90;;;;;;;19.67;50.87;98939.93;1809616;78;27318;-66
2023/01/02 11:37:52;;;;;;;23.02;12.30;;;;;;;19.49;50.90;98940.95;1848969;77;25610;-66
2023/01/02 11:40:28;;;;;;;18.87;10.65;;;;;;;19.56;51.92;98950.84;1821303;78;25691;-66
2023/01/02 11:45:46;;;;;;;18.42;10.82;;;;;;;19.88;50.90;98928.97;1837956;78;25385;-66
2023/01/02 11:48:17;;;;;;;17.80;10.60;;;;;;;19.99;51.01;98939.47;1821707;78;27422;-65
2023/01/02 11:50:44;;;;;;;11.53;7.80;;;;;;;20.08;50.75;98932.28;1837164;77;25920;-65
2023/01/02 11:53:20;;;;;;;15.93;8.48;;;;;;;20.13;49.79;98938.37;1821707;77;25740;-65
2023/01/02 11:55:52;;;;;;;19.17;10.93;;;;;;;20.21;49.98;98940.68;1809765;78;25575;-66
2023/01/02 11:58:42;;;;;;;26.10;12.98;;;;;;;20.32;49.87;98935.27;1838117;77;25446;-66